Terminal Aerodrome Forecast
Issued by NWS

Home | Current Version | Previous Version | Text Only | Print | Product List | Glossary On
Versions: 1 2 3 4 5 6 7 8 9 10 11 12
000
FTUS46 KSGX 291735
TAFPSP
TAF
KPSP 291735Z 2918/3018 12007KT P6SM SCT100
     FM292000 12009KT P6SM VCTS BKN100CB
     FM300100 VRB06KT P6SM VCTS BKN080CB
     FM300600 VRB05KT P6SM BKN100
     FM301200 VRB06KT P6SM FEW100=

USA.gov is the U.S. government's official web portal to all federal, state and local government web resources and services.